createdAt,value
2023-02-09T00:01:44.745Z,-0.47
2023-02-09T00:06:46.475Z,-1.11
2023-02-09T00:11:48.619Z,-1.41
2023-02-09T00:16:52.035Z,-1.77
2023-02-09T00:21:54.034Z,-1.58
2023-02-09T00:26:55.592Z,-1.93
2023-02-09T00:31:57.174Z,-2.22
2023-02-09T00:36:58.683Z,-1.90
2023-02-09T00:42:00.280Z,-1.82
2023-02-09T00:47:03.698Z,-1.17
2023-02-09T00:52:05.421Z,-0.91
2023-02-09T00:57:06.947Z,-1.40
2023-02-09T01:02:08.746Z,-1.79
2023-02-09T01:07:10.324Z,-2.03
2023-02-09T01:12:11.844Z,-2.15
2023-02-09T01:17:13.376Z,-1.95
2023-02-09T01:22:16.438Z,-1.40
2023-02-09T01:27:20.760Z,-0.99
2023-02-09T01:32:22.279Z,-0.79
2023-02-09T01:37:23.842Z,-1.16
2023-02-09T01:42:25.452Z,-1.66
2023-02-09T01:47:27.055Z,-1.74
2023-02-09T01:52:29.362Z,-1.38
2023-02-09T01:57:37.244Z,-1.23
2023-02-09T02:02:39.695Z,-1.32
2023-02-09T02:07:46.785Z,-1.46
2023-02-09T02:12:48.689Z,-1.49
2023-02-09T02:18:28.097Z,-1.70
2023-02-09T02:23:45.308Z,-1.51
2023-02-09T02:29:14.821Z,-1.07
2023-02-09T02:34:37.469Z,-1.20
2023-02-09T02:39:49.457Z,-1.61
2023-02-09T02:45:08.832Z,-1.67
2023-02-09T02:50:23.849Z,-1.68
2023-02-09T02:55:30.275Z,-1.62
2023-02-09T03:00:36.589Z,-1.66
2023-02-09T03:05:38.722Z,-1.79
2023-02-09T03:10:42.118Z,-1.70
2023-02-09T03:22:28.931Z,-2.30
2023-02-09T03:27:41.532Z,-2.20
2023-02-09T03:32:45.487Z,-1.98
2023-02-09T03:37:47.190Z,-1.98
2023-02-09T03:42:49.471Z,-2.03
2023-02-09T03:47:51.116Z,-2.11
2023-02-09T03:52:52.657Z,-2.00
2023-02-09T03:57:54.231Z,-2.00
2023-02-09T04:02:55.744Z,-2.28
2023-02-09T04:07:57.234Z,-2.44
2023-02-09T04:12:58.731Z,-2.64
2023-02-09T04:18:00.359Z,-2.44
2023-02-09T04:23:01.899Z,-2.56
2023-02-09T04:28:04.370Z,-2.71
2023-02-09T04:33:06.096Z,-2.69
2023-02-09T04:38:07.588Z,-2.61
2023-02-09T04:43:09.164Z,-2.69
2023-02-09T04:48:13.625Z,-2.36
2023-02-09T04:53:15.528Z,-2.38
2023-02-09T04:58:19.850Z,-2.46
2023-02-09T05:03:23.669Z,-2.30
2023-02-09T05:08:26.337Z,-2.51
2023-02-09T05:13:28.476Z,-2.49
2023-02-09T05:18:32.672Z,-2.42
2023-02-09T05:23:34.439Z,-2.45
2023-02-09T05:28:36.377Z,-2.37
2023-02-09T05:33:37.874Z,-2.51
2023-02-09T05:38:39.757Z,-2.51
2023-02-09T05:43:41.281Z,-2.52
2023-02-09T05:48:42.902Z,-2.48
2023-02-09T05:53:44.448Z,-2.48
2023-02-09T05:58:45.923Z,-2.40
2023-02-09T06:03:47.505Z,-2.48
2023-02-09T06:08:49.092Z,-2.55
2023-02-09T06:13:50.604Z,-2.57
2023-02-09T06:18:52.223Z,-2.48
2023-02-09T06:23:53.836Z,-2.45
2023-02-09T06:28:55.657Z,-2.44
2023-02-09T06:33:57.278Z,-2.61
2023-02-09T06:38:58.898Z,-2.68
2023-02-09T06:44:00.534Z,-2.50
2023-02-09T06:49:02.474Z,-2.73
2023-02-09T06:54:04.431Z,-2.71
2023-02-09T06:59:06.016Z,-2.64
2023-02-09T07:04:07.546Z,-2.67
2023-02-09T07:09:09.253Z,-2.75
2023-02-09T07:14:10.908Z,-2.63
2023-02-09T07:19:12.991Z,-2.46
2023-02-09T07:24:14.577Z,-2.21
2023-02-09T07:29:16.734Z,-1.83
2023-02-09T07:34:18.253Z,-1.47
2023-02-09T07:39:19.923Z,-1.40
2023-02-09T07:44:21.556Z,-1.30
2023-02-09T07:49:23.147Z,-1.02
2023-02-09T07:54:24.753Z,-0.30
2023-02-09T07:59:26.330Z,0.04
2023-02-09T08:04:27.961Z,-0.32
2023-02-09T08:09:29.607Z,-0.27
2023-02-09T08:14:37.693Z,0.34
2023-02-09T08:19:39.619Z,0.59
2023-02-09T08:24:41.406Z,0.80
2023-02-09T08:29:43.191Z,0.99
2023-02-09T08:34:44.755Z,1.62
2023-02-09T08:39:46.276Z,1.94
2023-02-09T08:44:48.051Z,2.47
2023-02-09T08:49:50.205Z,3.06
2023-02-09T08:54:51.783Z,3.15
2023-02-09T08:59:53.404Z,3.48
2023-02-09T09:04:54.912Z,3.65
2023-02-09T09:09:56.483Z,3.00
2023-02-09T09:14:57.995Z,3.37
2023-02-09T09:19:59.728Z,3.72
2023-02-09T09:25:01.366Z,3.60
2023-02-09T09:30:04.589Z,3.74
2023-02-09T09:35:06.444Z,4.67
2023-02-09T09:40:17.301Z,4.05
2023-02-09T09:45:24.270Z,4.79
2023-02-09T09:50:31.638Z,4.49
2023-02-09T09:55:34.457Z,3.94
2023-02-09T10:00:42.291Z,4.61
2023-02-09T10:05:45.534Z,4.66
2023-02-09T10:10:51.435Z,4.94
2023-02-09T10:15:55.483Z,5.33
2023-02-09T10:21:04.686Z,5.71
2023-02-09T10:26:09.216Z,5.82
2023-02-09T10:31:32.183Z,6.64
2023-02-09T10:36:37.107Z,6.79
2023-02-09T10:41:41.588Z,6.36
2023-02-09T10:46:43.412Z,6.62
2023-02-09T10:51:44.960Z,6.86
2023-02-09T10:56:48.877Z,6.76
2023-02-09T11:02:03.157Z,6.36
2023-02-09T11:07:14.795Z,6.88
2023-02-09T11:12:16.444Z,6.01
2023-02-09T11:17:46.174Z,7.17
2023-02-09T11:23:15.478Z,6.93
2023-02-09T11:28:54.284Z,6.94
2023-02-09T11:34:15.666Z,6.64
2023-02-09T11:39:26.718Z,6.80
2023-02-09T11:44:46.371Z,7.21
2023-02-09T11:49:50.563Z,7.63
2023-02-09T11:54:57.609Z,7.54
2023-02-09T12:00:05.753Z,6.67
2023-02-09T12:05:13.392Z,7.28
2023-02-09T12:10:42.871Z,7.87
2023-02-09T12:15:49.563Z,7.61
2023-02-09T12:20:54.052Z,7.20
2023-02-09T12:26:00.920Z,7.56
2023-02-09T12:31:04.897Z,8.08
2023-02-09T12:36:09.734Z,8.49
2023-02-09T12:41:11.419Z,8.58
2023-02-09T12:46:45.224Z,8.43
2023-02-09T12:51:49.957Z,8.21
2023-02-09T12:56:51.600Z,7.10
2023-02-09T13:02:08.286Z,7.53
2023-02-09T13:07:29.913Z,8.63
2023-02-09T13:12:42.325Z,8.77
2023-02-09T13:18:06.749Z,8.41
2023-02-09T13:23:14.055Z,8.85
2023-02-09T13:28:18.445Z,8.26
2023-02-09T13:33:49.057Z,8.92
2023-02-09T13:38:50.825Z,9.60
2023-02-09T13:43:52.803Z,9.50
2023-02-09T13:48:54.929Z,9.13
2023-02-09T13:53:59.513Z,9.37
2023-02-09T13:59:01.385Z,8.78
2023-02-09T14:04:35.430Z,8.44
2023-02-09T14:10:01.979Z,8.08
2023-02-09T14:15:03.923Z,8.81
2023-02-09T14:20:19.842Z,8.68
2023-02-09T14:25:31.531Z,8.89
2023-02-09T14:30:36.244Z,8.69
2023-02-09T14:35:45.060Z,8.78
2023-02-09T14:40:46.878Z,8.93
2023-02-09T14:45:58.676Z,8.54
2023-02-09T14:51:10.321Z,8.68
2023-02-09T14:56:30.640Z,8.79
2023-02-09T15:01:32.359Z,8.45
2023-02-09T15:06:35.467Z,8.04
2023-02-09T15:11:42.195Z,7.23
2023-02-09T15:16:44.201Z,7.25
2023-02-09T15:21:52.591Z,7.02
2023-02-09T15:27:01.307Z,6.95
2023-02-09T15:32:03.068Z,6.90
2023-02-09T15:37:04.737Z,6.62
2023-02-09T15:42:14.728Z,6.45
2023-02-09T15:47:16.234Z,6.33
2023-02-09T15:52:18.617Z,6.07
2023-02-09T15:57:20.308Z,5.91
2023-02-09T16:02:21.894Z,5.67
2023-02-09T16:07:26.119Z,5.41
2023-02-09T16:12:27.730Z,5.30
2023-02-09T16:17:29.360Z,5.07
2023-02-09T16:22:30.915Z,5.01
2023-02-09T16:27:32.574Z,4.50
2023-02-09T16:32:34.175Z,4.29
2023-02-09T16:37:36.061Z,3.74
2023-02-09T16:42:37.634Z,3.56
2023-02-09T16:47:40.932Z,3.41
2023-02-09T16:52:43.446Z,3.36
2023-02-09T16:57:44.983Z,3.43
2023-02-09T17:02:57.755Z,3.19
2023-02-09T17:08:13.664Z,3.25
2023-02-09T17:13:15.767Z,3.81
2023-02-09T17:18:24.115Z,3.32
2023-02-09T17:23:28.385Z,3.19
2023-02-09T17:28:30.117Z,2.70
2023-02-09T17:33:34.251Z,2.40
2023-02-09T17:38:37.242Z,2.27
2023-02-09T17:43:38.798Z,2.10
2023-02-09T17:48:40.425Z,1.95
2023-02-09T17:53:41.956Z,1.74
2023-02-09T17:58:43.582Z,1.51
2023-02-09T18:03:45.125Z,1.49
2023-02-09T18:08:46.648Z,1.29
2023-02-09T18:13:48.179Z,1.45
2023-02-09T18:18:49.792Z,1.24
2023-02-09T18:23:51.417Z,0.92
2023-02-09T18:28:53.061Z,0.72
2023-02-09T18:33:54.896Z,0.63
2023-02-09T18:38:56.463Z,0.67
2023-02-09T18:43:58.166Z,0.96
2023-02-09T18:49:01.858Z,0.93
2023-02-09T18:54:04.799Z,1.43
2023-02-09T18:59:06.334Z,1.22
2023-02-09T19:04:07.917Z,1.26
2023-02-09T19:09:09.457Z,1.47
2023-02-09T19:14:11.035Z,1.79
2023-02-09T19:19:12.796Z,1.88
2023-02-09T19:24:14.431Z,1.69
2023-02-09T19:29:16.691Z,1.82
2023-02-09T19:34:18.746Z,2.03
2023-02-09T19:39:20.261Z,2.26
2023-02-09T19:44:21.774Z,2.38
2023-02-09T19:49:23.576Z,2.36
2023-02-09T19:54:25.089Z,2.20
2023-02-09T19:59:26.574Z,2.13
2023-02-09T20:04:28.160Z,2.20
2023-02-09T20:09:29.853Z,2.27
2023-02-09T20:14:33.481Z,2.36
2023-02-09T20:19:36.078Z,2.51
2023-02-09T20:24:37.714Z,2.61
2023-02-09T20:29:39.246Z,2.72
2023-02-09T20:34:40.826Z,2.78
2023-02-09T20:39:42.384Z,2.85
2023-02-09T20:44:44.278Z,2.92
2023-02-09T20:49:45.819Z,3.05
2023-02-09T20:54:47.405Z,3.04
2023-02-09T20:59:48.909Z,3.11
2023-02-09T21:04:50.829Z,3.17
2023-02-09T21:09:52.929Z,3.20
2023-02-09T21:14:54.550Z,3.12
2023-02-09T21:19:56.552Z,2.88
2023-02-09T21:24:58.056Z,2.63
2023-02-09T21:30:00.012Z,2.47
2023-02-09T21:35:03.598Z,2.37
2023-02-09T21:40:06.650Z,2.30
2023-02-09T21:45:09.302Z,2.31
2023-02-09T21:50:12.961Z,2.20
2023-02-09T21:55:14.738Z,2.13
2023-02-09T22:00:16.651Z,2.25
2023-02-09T22:05:18.505Z,2.20
2023-02-09T22:10:20.142Z,2.05
2023-02-09T22:15:21.670Z,2.21
2023-02-09T22:20:23.319Z,2.19
2023-02-09T22:25:24.954Z,2.29
2023-02-09T22:30:26.526Z,2.28
2023-02-09T22:35:28.741Z,2.31
2023-02-09T22:40:30.329Z,2.22
2023-02-09T22:45:32.363Z,2.23
2023-02-09T22:50:34.971Z,2.33
2023-02-09T22:55:36.521Z,2.41
2023-02-09T23:00:38.041Z,2.49
2023-02-09T23:05:39.562Z,2.51
2023-02-09T23:10:41.094Z,2.54
2023-02-09T23:15:42.659Z,2.60
2023-02-09T23:20:44.175Z,2.39
2023-02-09T23:25:45.862Z,2.56
2023-02-09T23:30:48.045Z,2.43
2023-02-09T23:35:49.950Z,2.53
2023-02-09T23:40:51.602Z,2.40
2023-02-09T23:45:53.555Z,2.56
2023-02-09T23:51:04.048Z,2.62
2023-02-09T23:56:05.845Z,2.56
